NFTL/HPA METAR and TAF weather

Enter ICAO airport designator
Station Type Date Time Source
NFTL METAR 2020/04/05 00:00 UTC NOAA

NFTL 050000Z 13012KT 9999 SCT018TCU BKN120 28/23 Q1010


Station Type Date Time Source
NFTL Decoded METAR 2020/04/05 00:00 UTC NOAA

Haapai, Tonga (NFTL) 19-48S 174-21W 3M
Apr 04, 2020 - 08:00 PM EDT / 2020.04.05 0000 UTC
Wind: from the SE (130 degrees) at 14 MPH (12 KT):0
Visibility: greater than 7 mile(s):0
Sky conditions: mostly cloudy
Weather: Towering cumulus clouds observed
Temperature: 82 F (28 C)
Dew Point: 73 F (23 C)
Relative Humidity: 74%
Pressure (altimeter): 29.83 in. Hg (1010 hPa)
ob: NFTL 050000Z 13012KT 9999 SCT018TCU BKN120 28/23 Q1010
cycle: 0

Station Type Date Time Source
NFTL TAF 2018/02/21 17:36 UTC NOAA

TAF NFTL 211605Z 2117/2208 12010KT 9999 SCT018

Example: see airport list